Observations for CARLISLE, United Kingdom (EGNC)

EGNC 241750Z 23004KT 9999 VCSH FEW011 SCT017 02/01 Q1008
EGNC 241720Z 25004KT 9999 VCSH FEW011 SCT017TCU 03/02 Q1008 
EGNC 241650Z 27003KT 9999 VCSH FEW011 SCT017TCU 03/02 Q1007 
EGNC 241620Z 21004KT 9999 VCSH FEW011 SCT018TCU 03/02 Q1007 
EGNC 241550Z 25005KT 9999 VCSH FEW012 SCT018TCU 03/02 Q1007 
EGNC 241520Z 26007KT 9999 VCSH FEW012 SCT024TCU 04/01 Q1007 
EGNC 241450Z 26008KT 9999 VCSH FEW009 SCT018TCU 04/02 Q1007 
EGNC 241420Z 24007KT 9999 VCSH FEW009 SCT018TCU 04/02 Q1007 
EGNC 241350Z 23007KT 9999 VCSH SCT020 05/03 Q1007   
EGNC 241320Z 23009KT 9999 SCT020 05/03 Q1007
EGNC 241250Z 23009KT 9999 SCT023TCU 05/02 Q1008 
EGNC 241220Z 23010KT 200V260 9999 SCT019TCU 05/02 Q1008 
EGNC 241150Z 21004KT 9999 SCT019TCU 05/03 Q1008 
EGNC 241120Z 21005KT 9999 SCT019TCU 04/02 Q1008 
EGNC 241050Z 21004KT 9999 FEW018TCU 03/02 Q1008 
EGNC 241020Z 20003KT 9999 FEW018 02/01 Q1008
EGNC 240950Z 18003KT 9999 FEW018 01/01 Q1007
EGNC 240920Z 21002KT 9999 FEW015 01/00 Q1007
EGNC 240850Z VRB01KT 9999 FEW015 M00/M00 Q1007